createdAt,value
2023-09-10T00:00:59.705Z,94142.94
2023-09-10T00:03:26.215Z,94127.91
2023-09-10T00:05:52.834Z,94126.88
2023-09-10T00:08:19.309Z,94141.22
2023-09-10T00:10:45.784Z,94137.19
2023-09-10T00:13:12.261Z,94135.13
2023-09-10T00:15:42.769Z,94131.94
2023-09-10T00:18:09.338Z,94125.84
2023-09-10T00:20:35.909Z,94131.94
2023-09-10T00:23:02.441Z,94140.03
2023-09-10T00:25:29.800Z,94122.94
2023-09-10T00:27:58.812Z,94147.00
2023-09-10T00:30:45.341Z,94138.66
2023-09-10T00:33:11.808Z,94137.84
2023-09-10T00:35:38.268Z,94136.56
2023-09-10T00:38:04.819Z,94136.22
2023-09-10T00:40:31.862Z,94127.53
2023-09-10T00:42:58.392Z,94132.31
2023-09-10T00:45:24.804Z,94111.66
2023-09-10T00:47:51.409Z,94131.53
2023-09-10T00:50:18.696Z,94144.03
2023-09-10T00:52:51.423Z,94145.06
2023-09-10T00:55:19.590Z,94124.84
2023-09-10T00:57:46.178Z,94145.38
2023-09-10T01:00:22.993Z,94140.56
2023-09-10T01:02:50.391Z,94142.63
2023-09-10T01:05:18.452Z,94138.84
2023-09-10T01:07:45.922Z,94125.84
2023-09-10T01:10:12.962Z,94143.97
2023-09-10T01:13:01.914Z,94147.66
2023-09-10T01:15:37.770Z,94119.78
2023-09-10T01:18:21.833Z,94138.00
2023-09-10T01:21:07.515Z,94147.31
2023-09-10T01:24:13.649Z,94139.63
2023-09-10T01:26:41.077Z,94130.44
2023-09-10T01:29:15.598Z,94128.03
2023-09-10T01:31:45.642Z,94136.63
2023-09-10T01:34:15.389Z,94134.91
2023-09-10T01:36:50.868Z,94152.66
2023-09-10T01:39:24.778Z,94136.59
2023-09-10T01:41:52.353Z,94145.81
2023-09-10T01:44:20.972Z,94137.78
2023-09-10T01:46:48.274Z,94140.28
2023-09-10T01:49:16.416Z,94142.31
2023-09-10T01:51:42.860Z,94136.25
2023-09-10T01:54:09.344Z,94137.78
2023-09-10T01:56:35.825Z,94132.50
2023-09-10T01:59:02.272Z,94133.66
2023-09-10T02:01:28.884Z,94140.09
2023-09-10T02:03:55.401Z,94138.47
2023-09-10T02:06:21.896Z,94138.34
2023-09-10T02:08:48.347Z,94146.94
2023-09-10T02:11:14.870Z,94141.44
2023-09-10T02:13:42.286Z,94139.81
2023-09-10T02:16:09.921Z,94161.63
2023-09-10T02:18:36.602Z,94146.00
2023-09-10T02:21:10.484Z,94162.50
2023-09-10T02:23:38.028Z,94145.50
2023-09-10T02:26:04.549Z,94140.44
2023-09-10T02:28:31.086Z,94142.16
2023-09-10T02:30:57.530Z,94149.84
2023-09-10T02:33:25.979Z,94149.50
2023-09-10T02:35:52.579Z,94160.38
2023-09-10T02:38:19.108Z,94166.53
2023-09-10T02:40:45.731Z,94151.69
2023-09-10T02:43:12.228Z,94155.72
2023-09-10T02:45:38.730Z,94156.88
2023-09-10T02:48:05.612Z,94155.72
2023-09-10T02:50:32.058Z,94150.47
2023-09-10T02:52:58.573Z,94154.56
2023-09-10T02:55:25.059Z,94152.22
2023-09-10T02:57:51.535Z,94176.81
2023-09-10T03:00:20.852Z,94159.38
2023-09-10T03:02:47.520Z,94165.81
2023-09-10T03:05:14.305Z,94163.94
2023-09-10T03:07:40.853Z,94159.97
2023-09-10T03:10:07.879Z,94158.06
2023-09-10T03:12:34.298Z,94150.16
2023-09-10T03:15:00.740Z,94154.28
2023-09-10T03:17:27.348Z,94159.91
2023-09-10T03:19:53.798Z,94142.53
2023-09-10T03:22:20.265Z,94155.44
2023-09-10T03:24:46.708Z,94152.22
2023-09-10T03:27:13.179Z,94164.06
2023-09-10T03:29:39.921Z,94164.66
2023-09-10T03:32:09.512Z,94167.94
2023-09-10T03:34:36.273Z,94166.84
2023-09-10T03:37:04.542Z,94158.34
2023-09-10T03:39:31.134Z,94164.44
2023-09-10T03:41:57.874Z,94151.94
2023-09-10T03:44:24.640Z,94126.63
2023-09-10T03:46:54.359Z,94148.28
2023-09-10T03:49:20.940Z,94152.97
2023-09-10T03:51:49.517Z,94160.56
2023-09-10T03:54:16.108Z,94138.84
2023-09-10T03:56:42.801Z,94143.66
2023-09-10T03:59:11.514Z,94144.47
2023-09-10T04:01:38.206Z,94142.88
2023-09-10T04:04:05.070Z,94146.06
2023-09-10T04:06:31.609Z,94146.50
2023-09-10T04:08:58.088Z,94155.38
2023-09-10T04:11:24.528Z,94146.50
2023-09-10T04:13:51.058Z,94152.34
2023-09-10T04:16:17.780Z,94154.56
2023-09-10T04:18:47.259Z,94130.44
2023-09-10T04:21:15.326Z,94137.28
2023-09-10T04:23:41.814Z,94145.78
2023-09-10T04:26:08.386Z,94135.69
2023-09-10T04:28:35.232Z,94143.03
2023-09-10T04:31:02.215Z,94153.53
2023-09-10T04:33:28.726Z,94149.16
2023-09-10T04:35:58.214Z,94150.75
2023-09-10T04:38:25.433Z,94153.22
2023-09-10T04:40:51.947Z,94162.44
2023-09-10T04:43:18.436Z,94172.41
2023-09-10T04:45:44.914Z,94166.38
2023-09-10T04:48:13.761Z,94163.81
2023-09-10T04:50:41.183Z,94174.72
2023-09-10T04:53:07.697Z,94155.00
2023-09-10T04:55:34.160Z,94159.81
2023-09-10T04:58:00.636Z,94171.88
2023-09-10T05:00:27.067Z,94170.34
2023-09-10T05:02:53.699Z,94167.84
2023-09-10T05:05:20.404Z,94167.84
2023-09-10T05:07:50.908Z,94173.84
2023-09-10T05:10:17.885Z,94189.19
2023-09-10T05:12:44.505Z,94183.22
2023-09-10T05:15:12.242Z,94180.38
2023-09-10T05:17:40.081Z,94194.19
2023-09-10T05:20:07.652Z,94182.31
2023-09-10T05:22:34.378Z,94181.75
2023-09-10T05:25:00.849Z,94196.38
2023-09-10T05:27:28.279Z,94192.72
2023-09-10T05:29:54.778Z,94174.13
2023-09-10T05:32:21.511Z,94165.72
2023-09-10T05:34:48.026Z,94184.53
2023-09-10T05:37:14.497Z,94199.19
2023-09-10T05:39:40.983Z,94195.66
2023-09-10T05:42:07.448Z,94183.16
2023-09-10T05:44:33.913Z,94191.72
2023-09-10T05:47:00.355Z,94186.16
2023-09-10T05:49:26.816Z,94173.13
2023-09-10T05:51:53.256Z,94192.00
2023-09-10T05:54:19.761Z,94176.19
2023-09-10T05:56:46.256Z,94176.00
2023-09-10T05:59:12.767Z,94182.56
2023-09-10T06:01:39.276Z,94173.19
2023-09-10T06:04:06.235Z,94185.28
2023-09-10T06:06:32.760Z,94191.94
2023-09-10T06:08:59.210Z,94190.16
2023-09-10T06:11:25.956Z,94195.44
2023-09-10T06:13:52.468Z,94165.78
2023-09-10T06:16:20.005Z,94185.75
2023-09-10T06:18:46.450Z,94175.75
2023-09-10T06:21:12.861Z,94167.38
2023-09-10T06:23:39.422Z,94175.97
2023-09-10T06:26:06.037Z,94176.66
2023-09-10T06:28:32.548Z,94176.88
2023-09-10T06:30:59.094Z,94175.97
2023-09-10T06:33:25.731Z,94170.22
2023-09-10T06:35:52.301Z,94176.97
2023-09-10T06:38:18.977Z,94170.75
2023-09-10T06:40:53.229Z,94177.03
2023-09-10T06:43:19.944Z,94165.69
2023-09-10T06:45:46.525Z,94176.78
2023-09-10T06:48:14.027Z,94176.19
2023-09-10T06:50:47.110Z,94162.75
2023-09-10T06:53:20.576Z,94169.84
2023-09-10T06:55:47.199Z,94180.25
2023-09-10T06:58:15.929Z,94171.84
2023-09-10T07:00:42.366Z,94169.44
2023-09-10T07:03:09.534Z,94176.66
2023-09-10T07:05:38.997Z,94188.06
2023-09-10T07:08:05.951Z,94162.91
2023-09-10T07:10:32.429Z,94137.94
2023-09-10T07:12:58.870Z,94156.81
2023-09-10T07:15:25.319Z,94162.41
2023-09-10T07:17:51.885Z,94165.22
2023-09-10T07:20:19.372Z,94156.06
2023-09-10T07:22:45.976Z,94162.41
2023-09-10T07:25:12.457Z,94140.91
2023-09-10T07:27:38.942Z,94164.81
2023-09-10T07:30:06.015Z,94157.50
2023-09-10T07:32:32.595Z,94165.50
2023-09-10T07:35:00.221Z,94156.59
2023-09-10T07:37:26.717Z,94164.19
2023-09-10T07:39:53.333Z,94165.38
2023-09-10T07:42:19.944Z,94162.75
2023-09-10T07:44:47.235Z,94092.94
2023-09-10T07:47:13.900Z,94157.94
2023-09-10T07:49:41.035Z,94167.94
2023-09-10T07:52:07.565Z,94163.06
2023-09-10T07:54:37.091Z,94156.34
2023-09-10T07:57:04.617Z,94166.53
2023-09-10T07:59:31.105Z,94174.63
2023-09-10T08:01:57.587Z,94174.91
2023-09-10T08:04:24.935Z,94166.22
2023-09-10T08:06:51.396Z,94182.06
2023-09-10T08:09:17.827Z,94179.63
2023-09-10T08:11:44.392Z,94171.66
2023-09-10T08:14:11.137Z,94180.75
2023-09-10T08:16:38.416Z,94189.31
2023-09-10T08:19:06.018Z,94181.38
2023-09-10T08:21:33.514Z,94166.97
2023-09-10T08:23:59.957Z,94179.25
2023-09-10T08:26:26.439Z,94180.84
2023-09-10T08:28:53.004Z,94179.25
2023-09-10T08:31:19.656Z,94180.34
2023-09-10T08:33:46.965Z,94182.44
2023-09-10T08:36:13.687Z,94186.19
2023-09-10T08:38:41.270Z,94179.28
2023-09-10T08:41:38.092Z,94186.19
2023-09-10T08:44:06.158Z,94171.53
2023-09-10T08:46:37.587Z,94173.66
2023-09-10T08:49:05.108Z,94179.22
2023-09-10T08:51:33.546Z,94162.16
2023-09-10T08:54:04.119Z,94167.47
2023-09-10T08:56:30.844Z,94170.09
2023-09-10T08:58:58.449Z,94165.25
2023-09-10T09:01:26.195Z,94164.72
2023-09-10T09:03:53.190Z,94170.97
2023-09-10T09:06:20.320Z,94166.22
2023-09-10T09:08:51.326Z,94176.75
2023-09-10T09:11:18.502Z,94173.47
2023-09-10T09:13:53.539Z,94164.00
2023-09-10T09:16:23.969Z,94159.72
2023-09-10T09:18:52.252Z,94160.63
2023-09-10T09:21:21.567Z,94154.25
2023-09-10T09:23:55.095Z,94177.53
2023-09-10T09:26:23.163Z,94170.63
2023-09-10T09:28:50.197Z,94154.53
2023-09-10T09:31:21.362Z,94151.25
2023-09-10T09:33:48.379Z,94153.19
2023-09-10T09:36:14.972Z,94156.97
2023-09-10T09:38:49.643Z,94151.56
2023-09-10T09:41:18.752Z,94155.63
2023-09-10T09:43:45.941Z,94135.38
2023-09-10T09:46:12.922Z,94143.38
2023-09-10T09:48:40.477Z,94146.81
2023-09-10T09:51:07.540Z,94150.44
2023-09-10T09:53:57.795Z,94152.03
2023-09-10T09:56:33.280Z,94143.13
2023-09-10T09:59:03.203Z,94152.91
2023-09-10T10:01:36.741Z,94150.72
2023-09-10T10:04:09.466Z,94149.25
2023-09-10T10:06:48.548Z,94134.00
2023-09-10T10:09:16.262Z,94142.22
2023-09-10T10:11:53.354Z,94149.72
2023-09-10T10:14:21.718Z,94132.72
2023-09-10T10:16:49.820Z,94128.00
2023-09-10T10:19:16.981Z,94135.06
2023-09-10T10:21:47.071Z,94110.09
2023-09-10T10:24:17.405Z,94115.38
2023-09-10T10:26:45.945Z,94076.06
2023-09-10T10:29:13.989Z,94110.69
2023-09-10T10:31:42.872Z,94123.78
2023-09-10T10:34:16.301Z,94115.25
2023-09-10T10:37:04.626Z,94134.31
2023-09-10T10:39:49.822Z,94124.41
2023-09-10T10:42:22.283Z,94109.91
2023-09-10T10:44:53.116Z,94102.94
2023-09-10T10:47:24.015Z,94122.50
2023-09-10T10:49:57.359Z,94105.50
2023-09-10T10:52:29.527Z,94123.41
2023-09-10T10:54:56.991Z,94121.91
2023-09-10T10:57:25.345Z,94119.59
2023-09-10T10:59:58.398Z,94107.91
2023-09-10T11:02:34.066Z,94107.84
2023-09-10T11:05:06.250Z,94120.00
2023-09-10T11:07:41.194Z,94103.13
2023-09-10T11:10:30.032Z,94114.22
2023-09-10T11:13:06.333Z,94108.06
2023-09-10T11:16:10.261Z,94092.03
2023-09-10T11:18:38.288Z,94113.50
2023-09-10T11:21:18.346Z,94104.75
2023-09-10T11:23:53.675Z,94104.34
2023-09-10T11:26:20.056Z,94102.81
2023-09-10T11:28:53.869Z,94101.03
2023-09-10T11:31:39.829Z,94096.06
2023-09-10T11:34:21.085Z,94101.44
2023-09-10T11:37:01.658Z,94095.22
2023-09-10T11:39:30.572Z,94083.72
2023-09-10T11:42:05.380Z,94084.47
2023-09-10T11:44:36.515Z,94093.88
2023-09-10T11:47:03.365Z,94097.47
2023-09-10T11:49:35.822Z,94090.19
2023-09-10T11:52:02.629Z,94094.47
2023-09-10T11:54:30.526Z,94102.91
2023-09-10T11:57:01.282Z,94094.81
2023-09-10T11:59:33.158Z,94087.38
2023-09-10T12:02:00.335Z,94100.59
2023-09-10T12:04:33.619Z,94087.47
2023-09-10T12:07:04.300Z,94085.13
2023-09-10T12:09:32.963Z,94082.63
2023-09-10T12:12:05.893Z,94090.31
2023-09-10T12:14:35.219Z,94088.72
2023-09-10T12:17:05.530Z,94085.41
2023-09-10T12:19:34.927Z,94085.06
2023-09-10T12:22:04.545Z,94086.25
2023-09-10T12:24:33.220Z,94075.94
2023-09-10T12:27:00.759Z,94085.03
2023-09-10T12:29:28.284Z,94069.59
2023-09-10T12:31:57.961Z,94062.88
2023-09-10T12:34:25.969Z,94018.63
2023-09-10T12:36:53.589Z,94063.84
2023-09-10T12:39:24.826Z,94073.22
2023-09-10T12:42:03.418Z,94055.50
2023-09-10T12:44:32.248Z,94071.41
2023-09-10T12:47:00.277Z,94055.94
2023-09-10T12:49:27.586Z,94052.44
2023-09-10T12:51:55.075Z,94048.47
2023-09-10T12:54:21.747Z,94050.84
2023-09-10T12:56:52.735Z,94059.75
2023-09-10T12:59:23.369Z,94034.53
2023-09-10T13:01:50.939Z,94070.84
2023-09-10T13:04:19.493Z,94015.66
2023-09-10T13:06:48.239Z,94045.00
2023-09-10T13:09:15.099Z,94051.97
2023-09-10T13:11:41.637Z,94032.63
2023-09-10T13:14:08.156Z,94036.91
2023-09-10T13:16:34.683Z,94038.59
2023-09-10T13:19:01.315Z,94034.38
2023-09-10T13:21:27.879Z,94034.06
2023-09-10T13:23:54.378Z,94038.97
2023-09-10T13:26:24.108Z,94037.22
2023-09-10T13:28:50.579Z,94025.78
2023-09-10T13:31:22.195Z,94039.22
2023-09-10T13:33:49.023Z,94023.59
2023-09-10T13:36:15.509Z,94033.44
2023-09-10T13:38:42.106Z,94039.31
2023-09-10T13:41:08.650Z,94042.31
2023-09-10T13:43:42.472Z,94030.25
2023-09-10T13:46:10.251Z,94037.00
2023-09-10T13:48:36.770Z,94038.78
2023-09-10T13:51:03.353Z,94049.88
2023-09-10T13:53:29.792Z,94042.16
2023-09-10T13:55:56.260Z,94022.56
2023-09-10T13:58:22.757Z,94017.00
2023-09-10T14:00:49.258Z,94032.44
2023-09-10T14:03:15.908Z,94026.38
2023-09-10T14:05:42.593Z,94027.00
2023-09-10T14:08:09.157Z,94036.22
2023-09-10T14:10:35.699Z,94032.47
2023-09-10T14:13:02.135Z,94027.03
2023-09-10T14:15:30.630Z,94020.00
2023-09-10T14:17:58.082Z,94023.59
2023-09-10T14:20:24.810Z,94019.47
2023-09-10T14:22:53.592Z,94017.19
2023-09-10T14:25:20.706Z,94012.41
2023-09-10T14:27:47.159Z,94018.47
2023-09-10T14:30:16.155Z,94025.09
2023-09-10T14:32:43.086Z,94018.84
2023-09-10T14:35:10.733Z,94019.38
2023-09-10T14:37:38.247Z,94019.91
2023-09-10T14:40:05.707Z,94018.84
2023-09-10T14:42:37.536Z,94027.31
2023-09-10T14:45:05.380Z,93992.09
2023-09-10T14:47:32.257Z,94018.47
2023-09-10T14:50:00.455Z,94002.47
2023-09-10T14:52:27.184Z,94010.53
2023-09-10T14:54:55.678Z,94007.63
2023-09-10T14:57:22.809Z,94006.53
2023-09-10T14:59:50.661Z,94005.56
2023-09-10T15:02:17.336Z,93997.34
2023-09-10T15:04:44.030Z,94002.47
2023-09-10T15:07:10.669Z,93992.16
2023-09-10T15:09:37.331Z,94016.72
2023-09-10T15:12:04.057Z,94002.31
2023-09-10T15:14:32.748Z,93993.19
2023-09-10T15:16:59.306Z,94002.25
2023-09-10T15:19:33.402Z,94012.84
2023-09-10T15:22:11.777Z,93994.34
2023-09-10T15:24:40.504Z,94009.06
2023-09-10T15:27:07.109Z,94005.41
2023-09-10T15:29:33.897Z,93992.72
2023-09-10T15:32:00.650Z,94001.63
2023-09-10T15:34:27.174Z,93997.34
2023-09-10T15:36:53.735Z,93977.84
2023-09-10T15:39:21.569Z,93995.41
2023-09-10T15:41:49.836Z,93996.06
2023-09-10T15:44:24.741Z,93988.00
2023-09-10T15:46:51.668Z,93986.63
2023-09-10T15:49:19.650Z,93986.88
2023-09-10T15:51:46.406Z,93925.06
2023-09-10T15:54:20.869Z,93984.66
2023-09-10T15:56:47.415Z,93976.09
2023-09-10T15:59:16.314Z,93977.19
2023-09-10T16:14:14.254Z,93975.72
2023-09-10T16:16:42.610Z,93967.06
2023-09-10T16:19:10.281Z,93985.31
2023-09-10T16:21:36.883Z,93973.53
2023-09-10T16:24:03.589Z,93986.47
2023-09-10T16:26:31.101Z,93978.06
2023-09-10T16:28:57.716Z,93970.53
2023-09-10T16:31:26.275Z,93975.78
2023-09-10T16:33:52.829Z,93931.84
2023-09-10T16:36:22.528Z,93967.91
2023-09-10T16:38:49.055Z,93969.06
2023-09-10T16:41:15.651Z,93978.91
2023-09-10T16:43:47.998Z,93998.16
2023-09-10T16:46:15.492Z,93968.81
2023-09-10T16:48:42.243Z,93987.09
2023-09-10T16:51:08.778Z,93991.06
2023-09-10T16:53:36.299Z,93980.09
2023-09-10T16:56:03.108Z,93991.13
2023-09-10T16:58:29.666Z,93994.59
2023-09-10T17:00:56.315Z,93986.50
2023-09-10T17:03:23.949Z,93992.16
2023-09-10T17:05:51.378Z,94012.56
2023-09-10T17:08:17.893Z,93987.84
2023-09-10T17:10:45.553Z,93989.56
2023-09-10T17:13:12.582Z,93989.31
2023-09-10T17:15:39.138Z,94006.06
2023-09-10T17:18:06.027Z,93992.00
2023-09-10T17:20:34.804Z,93992.38
2023-09-10T17:23:01.741Z,94003.53
2023-09-10T17:25:29.206Z,93998.13
2023-09-10T17:27:58.141Z,93986.31
2023-09-10T17:30:24.842Z,93993.63
2023-09-10T17:32:55.567Z,93983.03
2023-09-10T17:35:22.077Z,93986.84
2023-09-10T17:37:48.544Z,93986.34
2023-09-10T17:40:14.979Z,93982.25
2023-09-10T17:42:42.444Z,93968.00
2023-09-10T17:45:09.748Z,93982.72
2023-09-10T17:47:37.808Z,93990.97
2023-09-10T17:50:07.771Z,93992.59
2023-09-10T17:52:35.956Z,94011.78
2023-09-10T17:55:06.805Z,94015.03
2023-09-10T17:57:34.433Z,94013.50
2023-09-10T18:00:01.002Z,94020.53
2023-09-10T18:02:28.867Z,93999.78
2023-09-10T18:04:55.461Z,93981.69
2023-09-10T18:07:22.570Z,94019.50
2023-09-10T18:09:51.153Z,94009.41
2023-09-10T18:12:19.106Z,94028.25
2023-09-10T18:14:45.627Z,93999.78
2023-09-10T18:17:13.764Z,94030.66
2023-09-10T18:19:40.473Z,94009.66
2023-09-10T18:22:06.961Z,94015.75
2023-09-10T18:24:33.383Z,94018.97
2023-09-10T18:27:00.854Z,94029.59
2023-09-10T18:29:28.640Z,94030.94
2023-09-10T18:31:55.155Z,94050.88
2023-09-10T18:34:21.823Z,94045.53
2023-09-10T18:36:48.500Z,94045.00
2023-09-10T18:39:15.002Z,94036.94
2023-09-10T18:41:41.613Z,94039.06
2023-09-10T18:44:08.266Z,94058.47
2023-09-10T18:46:37.178Z,94076.41
2023-09-10T18:49:03.636Z,94040.19
2023-09-10T18:51:30.088Z,94036.94
2023-09-10T18:53:56.686Z,94051.25
2023-09-10T18:56:23.118Z,94040.06
2023-09-10T18:58:49.596Z,94045.91
2023-09-10T19:01:17.295Z,94058.59
2023-09-10T19:03:44.192Z,94052.69
2023-09-10T19:06:10.882Z,94051.34
2023-09-10T19:08:37.372Z,94007.31
2023-09-10T19:11:03.905Z,94061.75
2023-09-10T19:13:30.610Z,94071.28
2023-09-10T19:15:57.155Z,94059.44
2023-09-10T19:18:23.760Z,94053.19
2023-09-10T19:20:50.686Z,94065.78
2023-09-10T19:23:17.157Z,94012.94
2023-09-10T19:25:43.940Z,94054.19
2023-09-10T19:28:10.675Z,94047.78
2023-09-10T19:30:38.014Z,94069.56
2023-09-10T19:33:05.040Z,94064.75
2023-09-10T19:35:32.815Z,94051.66
2023-09-10T19:38:00.437Z,94062.28
2023-09-10T19:40:26.932Z,94042.28
2023-09-10T19:42:53.475Z,94056.28
2023-09-10T19:45:20.016Z,94027.56
2023-09-10T19:47:48.243Z,94071.50
2023-09-10T19:50:16.979Z,94060.69
2023-09-10T19:52:46.261Z,94054.78
2023-09-10T19:55:12.784Z,94065.97
2023-09-10T19:57:39.628Z,94073.34
2023-09-10T20:00:07.801Z,94044.88
2023-09-10T20:02:34.361Z,94062.63
2023-09-10T20:05:02.027Z,94055.31
2023-09-10T20:07:29.240Z,94039.44
2023-09-10T20:09:59.439Z,94074.16
2023-09-10T20:12:26.057Z,94068.75
2023-09-10T20:14:52.710Z,94068.28
2023-09-10T20:17:19.206Z,94072.56
2023-09-10T20:38:40.307Z,94042.75
2023-09-10T20:41:17.312Z,94041.00
2023-09-10T20:43:47.786Z,94068.06
2023-09-10T20:46:17.061Z,94061.59
2023-09-10T20:48:44.717Z,94055.63
2023-09-10T20:51:11.492Z,94068.91
2023-09-10T21:44:09.738Z,94071.00
2023-09-10T21:46:36.234Z,94063.31
2023-09-10T21:49:02.750Z,94058.88
